Terminal Aerodrome Forecast
Issued by NWS

Home | Current Version | Previous Version | Text Only | Print | Product List | Glossary On
Versions: 1 2 3 4 5 6 7 8 9 10 11 12 13 14 15 16
000
FTAK31 PAJN 251700
TAFASI
TAF
PASI 251723Z 2518/2618 08005KT P6SM -SHRA BKN025 OVC035
      TEMPO 2518/2520 5SM SHRA BR BKN015 OVC025
     FM252000 21007KT P6SM -SHRA SCT015 OVC030
     FM252200 13006KT P6SM VCSH SCT015 BKN035
     FM260200 14008KT P6SM -SHRA SCT015 OVC030
     FM261000 30006KT P6SM VCSH SCT025 BKN050
     FM261400 VRB05KT P6SM SCT030 BKN060=

USA.gov is the U.S. government's official web portal to all federal, state and local government web resources and services.